Time;durP1;ratioP1;P1;durP2;ratioP2;P2;SDS_P1;SDS_P2;PMS_P1;PMS_P2;Temp;Humidity;BMP_temperature;BMP_pressure;BME280_temperature;BME280_humidity;BME280_pressure;Samples;Min_cycle;Max_cycle;Signal;HPM_P1;HPM_P2
2023/06/22 00:02:18;;;;;;;3.60;2.63;;;20.30;96.30;20.50;100876.00;;;;4969956;28;117166;-69
2023/06/22 00:04:44;;;;;;;2.85;2.65;;;20.30;96.90;20.40;100876.00;;;;4970385;28;117554;-69
2023/06/22 00:07:10;;;;;;;3.58;2.92;;;20.30;96.80;20.40;100881.00;;;;4977102;28;102680;-69
2023/06/22 00:09:36;;;;;;;3.83;2.75;;;20.30;96.90;20.40;100880.00;;;;4978854;28;88624;-69
2023/06/22 00:12:02;;;;;;;4.03;3.05;;;21.00;97.30;20.40;100892.00;;;;4973321;28;88438;-69
2023/06/22 00:14:28;;;;;;;4.60;2.75;;;20.30;97.30;20.40;100889.00;;;;4972711;28;91286;-69
2023/06/22 00:16:57;;;;;;;7.50;3.63;;;20.30;97.50;20.40;100903.00;;;;4972289;28;109786;-69
2023/06/22 00:19:23;;;;;;;4.78;2.70;;;20.20;97.70;20.30;100898.00;;;;4950688;28;88120;-68
2023/06/22 00:21:52;;;;;;;3.53;2.58;;;20.20;97.80;20.30;100907.00;;;;4972115;28;118235;-68
2023/06/22 00:24:19;;;;;;;3.15;2.80;;;20.20;98.10;20.20;100902.00;;;;4971730;28;89046;-68
2023/06/22 00:26:45;;;;;;;9.63;2.97;;;20.10;98.30;20.20;100915.00;;;;4974906;28;88066;-71
2023/06/22 00:29:11;;;;;;;3.58;2.47;;;20.10;98.50;20.10;100912.00;;;;4973093;28;99810;-69
2023/06/22 00:31:36;;;;;;;4.15;2.85;;;20.00;98.60;20.10;100907.00;;;;4971836;28;89031;-69
2023/06/22 00:34:02;;;;;;;2.63;2.42;;;20.00;98.90;20.00;100904.00;;;;4954792;28;93700;-69
2023/06/22 00:36:28;;;;;;;5.63;3.58;;;20.00;99.10;20.00;100905.00;;;;4953425;28;88024;-69
2023/06/22 00:38:53;;;;;;;5.13;3.20;;;19.90;99.30;20.00;100918.00;;;;4952617;28;87840;-69
2023/06/22 00:41:19;;;;;;;5.30;3.25;;;19.90;99.60;19.90;100915.00;;;;4950904;28;116826;-70
2023/06/22 00:43:45;;;;;;;3.88;3.00;;;19.80;99.80;19.90;100917.00;;;;4953979;28;117264;-68
2023/06/22 00:46:11;;;;;;;5.60;3.95;;;19.80;99.90;19.80;100916.00;;;;4947843;28;111150;-68
2023/06/22 00:48:37;;;;;;;4.72;4.18;;;19.70;99.90;19.80;100920.00;;;;4956158;28;88713;-68
2023/06/22 00:51:03;;;;;;;4.15;3.28;;;19.70;99.90;19.70;100921.00;;;;4951703;28;117532;-68
2023/06/22 00:53:28;;;;;;;6.28;3.20;;;19.60;99.90;19.70;100910.00;;;;4948756;28;117027;-69
2023/06/22 00:55:55;;;;;;;3.67;3.20;;;19.60;99.90;19.60;100904.00;;;;4952114;28;109485;-68
2023/06/22 00:58:22;;;;;;;4.40;4.00;;;19.50;99.90;19.50;100901.00;;;;4938992;28;108331;-68
2023/06/22 01:00:48;;;;;;;3.83;2.63;;;19.40;99.90;19.50;100904.00;;;;4955663;28;88399;-69
2023/06/22 01:03:16;;;;;;;6.90;3.83;;;19.40;99.90;19.50;100920.00;;;;4957481;28;88057;-68
2023/06/22 01:05:46;;;;;;;4.03;3.25;;;19.40;99.90;19.50;100914.00;;;;4936150;28;87330;-68
2023/06/22 01:08:31;;;;;;;3.20;2.17;;;19.40;99.90;19.40;100919.00;;;;4936682;28;88490;-68
2023/06/22 01:11:15;;;;;;;5.18;3.80;;;19.30;99.90;19.50;100919.00;;;;4949607;28;89090;-68
2023/06/22 01:14:35;;;;;;;4.63;3.47;;;19.30;99.90;19.40;100919.00;;;;4967982;28;109026;-69
2023/06/22 01:17:02;;;;;;;4.88;3.60;;;19.40;99.90;19.50;100912.00;;;;4957838;28;98532;-69
2023/06/22 01:19:46;;;;;;;5.45;3.72;;;19.40;99.90;19.50;100910.00;;;;4972082;28;99343;-69
2023/06/22 01:22:17;;;;;;;5.07;3.33;;;19.30;99.90;19.50;100921.00;;;;4956744;28;87853;-69
2023/06/22 01:24:52;;;;;;;6.07;3.47;;;19.40;99.90;19.50;100914.00;;;;4971850;28;118134;-69
2023/06/22 01:27:36;;;;;;;4.72;3.25;;;19.30;99.90;19.50;100916.00;;;;4955584;28;87728;-69
2023/06/22 01:30:05;;;;;;;3.20;2.70;;;19.30;99.90;19.50;100919.00;;;;4944154;28;89243;-68
2023/06/22 01:32:33;;;;;;;4.97;3.00;;;19.40;99.90;19.40;100921.00;;;;4971240;28;88282;-68
2023/06/22 01:35:03;;;;;;;3.88;3.33;;;19.30;99.90;19.40;100920.00;;;;4974687;28;91257;-69
2023/06/22 01:37:31;;;;;;;4.03;3.20;;;19.30;99.90;19.40;100928.00;;;;4956464;28;94491;-69
2023/06/22 01:39:58;;;;;;;6.43;3.55;;;19.20;99.90;19.30;100913.00;;;;4957356;28;89003;-69
2023/06/22 01:42:25;;;;;;;5.32;4.13;;;19.20;99.90;19.20;100921.00;;;;4953353;28;95450;-68
2023/06/22 01:44:53;;;;;;;5.38;3.42;;;19.10;99.90;19.10;100908.00;;;;4968533;28;88535;-69
2023/06/22 01:47:21;;;;;;;4.10;3.70;;;19.00;99.90;19.00;100909.00;;;;4958076;28;103173;-68
2023/06/22 01:49:47;;;;;;;3.95;3.58;;;18.90;99.90;19.00;100912.00;;;;4959838;28;100574;-69
2023/06/22 01:52:12;;;;;;;5.85;4.50;;;18.80;99.90;18.90;100911.00;;;;4957194;28;88781;-68
2023/06/22 01:54:40;;;;;;;5.32;3.45;;;18.80;99.90;18.80;100902.00;;;;4973429;28;116382;-69
2023/06/22 01:57:06;;;;;;;4.43;2.72;;;18.70;99.90;18.80;100902.00;;;;4969742;28;87344;-69
2023/06/22 01:59:58;;;;;;;5.18;2.88;;;18.70;99.90;18.70;100900.00;;;;4957463;28;107434;-69
2023/06/22 02:02:29;;;;;;;5.60;3.17;;;18.60;99.90;18.70;100897.00;;;;4966017;28;87882;-68
2023/06/22 02:04:59;;;;;;;3.25;2.53;;;18.60;99.90;18.70;100901.00;;;;4973311;28;88999;-69
2023/06/22 02:07:33;;;;;;;5.70;3.65;;;18.60;99.90;18.80;100905.00;;;;4973342;28;88042;-69
2023/06/22 02:10:00;;;;;;;6.95;4.00;;;18.70;99.90;18.80;100903.00;;;;4972031;28;87806;-69
2023/06/22 02:12:28;;;;;;;5.78;3.63;;;18.60;99.90;18.80;100901.00;;;;4977252;28;117321;-69
2023/06/22 02:14:54;;;;;;;4.45;3.97;;;18.70;99.90;18.80;100909.00;;;;4950979;28;88146;-69
2023/06/22 02:17:20;;;;;;;4.60;3.10;;;18.70;99.90;18.80;100921.00;;;;4949574;28;111835;-69
2023/06/22 02:19:46;;;;;;;4.50;3.10;;;18.70;99.90;18.80;100922.00;;;;4949889;28;104770;-68
2023/06/22 02:22:14;;;;;;;3.40;2.55;;;18.70;99.90;18.80;100923.00;;;;4970230;28;116165;-68
2023/06/22 02:24:40;;;;;;;4.80;3.78;;;18.70;99.90;18.80;100923.00;;;;4970100;28;87708;-68
2023/06/22 02:27:07;;;;;;;5.38;3.38;;;18.70;99.90;18.80;100920.00;;;;4964148;28;110823;-69
2023/06/22 02:29:33;;;;;;;6.22;4.20;;;18.70;99.90;18.80;100923.00;;;;4967556;28;88761;-68
2023/06/22 02:31:58;;;;;;;5.28;3.55;;;18.60;99.90;18.70;100927.00;;;;4954037;28;95929;-68
2023/06/22 02:34:24;;;;;;;4.10;3.42;;;18.60;99.90;18.70;100939.00;;;;4970248;28;117799;-67
2023/06/22 02:36:50;;;;;;;4.00;2.90;;;18.60;99.90;18.70;100932.00;;;;4969627;28;109849;-68
2023/06/22 02:39:24;;;;;;;5.60;3.78;;;18.60;99.90;18.70;100922.00;;;;4971878;28;87925;-68
2023/06/22 02:41:51;;;;;;;6.03;3.88;;;18.60;99.90;18.70;100931.00;;;;4964881;28;105573;-69
2023/06/22 02:44:18;;;;;;;4.35;3.63;;;18.60;99.90;18.70;100929.00;;;;4971130;28;98868;-68
2023/06/22 02:46:44;;;;;;;5.85;3.90;;;18.60;99.90;18.70;100921.00;;;;4977748;28;87134;-69
2023/06/22 02:49:10;;;;;;;4.50;3.88;;;18.60;99.90;18.80;100924.00;;;;4958804;28;88049;-69
2023/06/22 02:51:46;;;;;;;5.38;3.20;;;18.60;99.90;18.80;100926.00;;;;4972245;28;88033;-68
2023/06/22 02:54:12;;;;;;;4.93;3.65;;;18.70;99.90;18.80;100935.00;;;;4951231;28;89368;-69
2023/06/22 02:56:37;;;;;;;5.30;4.05;;;18.70;99.90;18.80;100926.00;;;;4972912;28;110817;-69
2023/06/22 02:59:03;;;;;;;5.68;3.65;;;18.70;99.90;18.80;100926.00;;;;4974281;28;87991;-69
2023/06/22 03:01:30;;;;;;;4.15;3.47;;;18.70;99.90;18.80;100931.00;;;;4973652;28;89144;-68
2023/06/22 03:03:56;;;;;;;5.40;3.78;;;18.70;99.90;18.80;100932.00;;;;4970240;28;88149;-69
2023/06/22 03:06:23;;;;;;;5.85;3.92;;;18.70;99.90;18.70;100919.00;;;;4969756;28;87743;-69
2023/06/22 03:08:49;;;;;;;3.35;3.05;;;18.60;99.90;18.70;100927.00;;;;4974901;28;88070;-68
2023/06/22 03:11:15;;;;;;;6.88;4.32;;;18.60;99.90;18.70;100928.00;;;;4975142;28;88437;-69
2023/06/22 03:13:41;;;;;;;6.15;3.67;;;18.60;99.90;18.60;100919.00;;;;4972084;28;89004;-68
2023/06/22 03:16:07;;;;;;;3.75;3.30;;;18.50;99.90;18.60;100916.00;;;;4976141;28;87817;-69
2023/06/22 03:18:32;;;;;;;4.10;3.70;;;18.50;99.90;18.60;100912.00;;;;4977696;28;107830;-69
2023/06/22 03:20:58;;;;;;;4.85;3.05;;;18.50;99.90;18.50;100909.00;;;;4971716;28;118203;-68
2023/06/22 03:23:24;;;;;;;6.63;4.72;;;18.40;99.90;18.40;100906.00;;;;4972786;28;107823;-68
2023/06/22 03:25:49;;;;;;;4.43;3.95;;;18.40;99.90;18.40;100896.00;;;;4977083;28;109613;-68
2023/06/22 03:28:15;;;;;;;4.95;3.85;;;18.30;99.90;18.40;100894.00;;;;4973056;28;107487;-68
2023/06/22 03:30:41;;;;;;;7.15;4.38;;;18.30;99.90;18.30;100897.00;;;;4974386;28;88130;-68
2023/06/22 03:33:06;;;;;;;3.63;3.03;;;18.20;99.90;18.30;100890.00;;;;4974173;28;117860;-67
2023/06/22 03:35:32;;;;;;;5.85;4.25;;;18.20;99.90;18.20;100888.00;;;;4977377;28;111069;-68
2023/06/22 03:37:58;;;;;;;4.97;3.63;;;18.10;99.90;18.20;100895.00;;;;4976127;28;108775;-68
2023/06/22 03:40:24;;;;;;;5.72;4.40;;;18.10;99.90;18.20;100893.00;;;;4974493;28;118154;-68
2023/06/22 03:42:50;;;;;;;5.72;5.13;;;18.10;99.90;18.20;100893.00;;;;4977326;28;88869;-69
2023/06/22 03:45:15;;;;;;;4.70;4.15;;;18.10;99.90;18.30;100886.00;;;;4956173;28;93607;-69
2023/06/22 03:47:41;;;;;;;5.68;4.32;;;18.20;99.90;18.30;100889.00;;;;4970037;28;108737;-69
2023/06/22 03:50:07;;;;;;;6.32;4.18;;;18.20;99.90;18.40;100891.00;;;;4973268;28;117765;-69
2023/06/22 03:52:33;;;;;;;6.95;5.05;;;18.20;99.90;18.40;100896.00;;;;4973954;28;88538;-69
2023/06/22 03:54:59;;;;;;;4.55;4.15;;;18.30;99.90;18.50;100899.00;;;;4969169;28;88124;-69
2023/06/22 03:57:24;;;;;;;4.18;3.78;;;18.40;99.90;18.60;100894.00;;;;4972168;28;108001;-69
2023/06/22 03:59:50;;;;;;;4.88;4.13;;;18.40;99.90;18.70;100896.00;;;;4969690;28;116999;-69
2023/06/22 04:02:16;;;;;;;5.93;5.32;;;18.50;99.90;18.80;100900.00;;;;4975275;28;115994;-69
2023/06/22 04:04:44;;;;;;;8.73;4.60;;;18.60;99.90;18.90;100910.00;;;;4973697;28;87873;-69
2023/06/22 04:07:10;;;;;;;7.63;4.78;;;18.70;99.90;19.00;100910.00;;;;4967487;28;100443;-69
2023/06/22 04:09:36;;;;;;;4.85;3.85;;;18.80;99.90;19.20;100896.00;;;;4971440;28;117604;-69
2023/06/22 04:12:02;;;;;;;6.30;5.32;;;18.90;99.90;19.20;100898.00;;;;4968100;28;118132;-69
2023/06/22 04:14:28;;;;;;;7.47;5.45;;;19.00;99.90;19.30;100899.00;;;;4977962;28;88200;-69
2023/06/22 04:16:53;;;;;;;8.93;4.82;;;19.10;99.90;19.40;100910.00;;;;4974228;28;109575;-69
2023/06/22 04:19:19;;;;;;;8.07;5.38;;;19.20;99.90;19.50;100917.00;;;;4970283;28;98768;-69
2023/06/22 04:21:48;;;;;;;4.72;4.25;;;19.30;99.90;19.60;100914.00;;;;4958689;28;118168;-70
2023/06/22 04:24:17;;;;;;;7.22;5.50;;;19.40;99.90;19.70;100906.00;;;;4977881;28;87278;-68
2023/06/22 04:26:45;;;;;;;6.55;4.63;;;19.50;99.90;19.70;100906.00;;;;4946005;28;94132;-68
2023/06/22 04:29:11;;;;;;;4.75;4.05;;;19.50;99.90;19.80;100907.00;;;;4946800;28;93762;-68
2023/06/22 04:31:36;;;;;;;4.95;4.43;;;19.60;99.90;19.90;100929.00;;;;4955385;28;88863;-68
2023/06/22 04:34:06;;;;;;;8.35;5.53;;;19.70;99.90;19.90;100927.00;;;;4956198;28;103764;-68
2023/06/22 04:36:38;;;;;;;6.30;5.70;;;19.70;99.90;20.00;100932.00;;;;4955771;28;87895;-68
2023/06/22 04:39:12;;;;;;;6.18;4.32;;;19.80;99.90;20.00;100933.00;;;;4951943;28;87995;-68
2023/06/22 04:41:42;;;;;;;5.85;4.40;;;19.80;99.90;20.10;100936.00;;;;4949697;28;94037;-68
2023/06/22 04:44:23;;;;;;;10.13;4.63;;;19.90;99.90;20.20;100931.00;;;;4953272;28;87586;-68
2023/06/22 04:47:03;;;;;;;7.82;5.07;;;20.00;99.90;20.30;100923.00;;;;4948651;28;87872;-69
2023/06/22 04:49:34;;;;;;;7.28;5.55;;;20.10;99.90;20.50;100920.00;;;;4953019;28;87473;-69
2023/06/22 04:52:01;;;;;;;7.45;5.55;;;20.30;99.90;20.60;100933.00;;;;4948223;28;87847;-68
2023/06/22 04:54:27;;;;;;;7.72;5.00;;;20.40;99.90;20.70;100934.00;;;;4951947;28;87890;-68
2023/06/22 04:56:58;;;;;;;6.22;5.25;;;20.50;99.90;20.90;100940.00;;;;4934417;28;109458;-68
2023/06/22 04:59:30;;;;;;;5.63;4.05;;;20.70;99.90;21.10;100947.00;;;;4952158;28;88194;-68
2023/06/22 05:01:58;;;;;;;5.63;4.53;;;20.90;99.90;21.30;100955.00;;;;4951673;28;87931;-69
2023/06/22 05:04:25;;;;;;;5.85;5.15;;;21.10;99.90;21.50;100948.00;;;;4950055;28;87759;-68
2023/06/22 05:06:52;;;;;;;5.95;4.93;;;21.30;99.90;21.70;100952.00;;;;4949946;28;87964;-69
2023/06/22 05:09:18;;;;;;;4.22;3.83;;;21.50;99.90;21.90;100959.00;;;;4952528;28;88628;-69
2023/06/22 05:11:45;;;;;;;9.18;5.35;;;21.70;99.90;22.10;100963.00;;;;4933777;28;88649;-69
2023/06/22 05:14:10;;;;;;;8.10;4.90;;;21.90;99.90;22.40;100969.00;;;;4950105;28;87617;-68
2023/06/22 05:16:37;;;;;;;8.82;4.95;;;22.10;99.90;22.60;100976.00;;;;4953205;28;107284;-68
2023/06/22 05:19:03;;;;;;;6.32;4.55;;;22.20;99.90;22.80;100968.00;;;;4947579;28;102553;-68
2023/06/22 05:21:30;;;;;;;8.45;5.47;;;22.50;99.90;23.00;100974.00;;;;4950711;28;109303;-68
2023/06/22 05:24:00;;;;;;;7.53;5.30;;;22.70;99.90;23.20;100974.00;;;;4953244;28;87870;-68
2023/06/22 05:26:26;;;;;;;6.47;4.45;;;22.90;99.90;23.30;100982.00;;;;4951934;28;88127;-68
2023/06/22 05:28:53;;;;;;;5.50;4.18;;;23.10;99.90;23.50;100984.00;;;;4949230;28;103578;-68
2023/06/22 05:31:19;;;;;;;6.63;4.90;;;23.20;99.90;23.70;100980.00;;;;4937119;28;87986;-67
2023/06/22 05:33:46;;;;;;;5.88;5.00;;;23.40;99.90;23.90;100980.00;;;;4953763;28;92153;-69
2023/06/22 05:36:12;;;;;;;6.07;4.95;;;23.60;99.90;24.00;100985.00;;;;4952317;28;88074;-69
2023/06/22 05:38:39;;;;;;;7.05;5.10;;;23.80;99.90;24.10;100984.00;;;;4952011;28;89073;-69
2023/06/22 05:41:05;;;;;;;8.52;5.50;;;23.80;99.90;24.20;100991.00;;;;4953738;28;117202;-69
2023/06/22 05:43:31;;;;;;;8.50;5.32;;;23.90;99.90;24.30;100986.00;;;;4952922;28;110713;-69
2023/06/22 05:45:57;;;;;;;13.00;6.32;;;24.00;99.90;24.40;100985.00;;;;4957604;28;88831;-69
2023/06/22 05:48:23;;;;;;;5.57;4.60;;;24.10;99.90;24.50;100990.00;;;;4951801;28;99772;-69
2023/06/22 05:50:49;;;;;;;7.80;5.50;;;24.20;99.90;24.60;100994.00;;;;4955722;28;88721;-69
2023/06/22 05:53:15;;;;;;;5.38;4.45;;;24.30;99.90;24.70;100997.00;;;;4954762;28;87646;-69
2023/06/22 05:55:40;;;;;;;6.88;5.18;;;24.40;99.90;24.80;100995.00;;;;4951499;28;87790;-69
2023/06/22 05:58:09;;;;;;;8.40;5.15;;;24.50;99.90;24.90;101004.00;;;;4952141;28;87965;-68
2023/06/22 06:00:35;;;;;;;6.93;5.13;;;24.60;99.90;25.00;100993.00;;;;4954491;28;96033;-68
2023/06/22 06:03:03;;;;;;;7.10;5.28;;;24.70;99.90;25.10;100990.00;;;;4953261;28;96425;-69
2023/06/22 06:05:30;;;;;;;9.88;4.88;;;24.80;99.90;25.20;100984.00;;;;4955897;28;87915;-68
2023/06/22 06:07:56;;;;;;;5.80;4.78;;;24.90;99.90;25.30;100982.00;;;;4955469;28;99971;-67
2023/06/22 06:10:22;;;;;;;7.13;4.75;;;25.00;99.90;25.40;100977.00;;;;4953256;28;88792;-68
2023/06/22 06:12:48;;;;;;;7.47;4.97;;;25.00;99.90;25.50;100982.00;;;;4949205;28;109836;-68
2023/06/22 06:15:13;;;;;;;7.13;5.07;;;25.20;99.90;25.70;100984.00;;;;4952700;28;108389;-68
2023/06/22 06:17:49;;;;;;;5.65;4.43;;;25.30;99.90;25.80;100975.00;;;;4953978;28;116833;-69
2023/06/22 06:20:18;;;;;;;7.18;4.93;;;25.50;99.90;26.00;100982.00;;;;4953944;28;92932;-70
2023/06/22 06:22:44;;;;;;;7.30;5.60;;;25.70;99.90;26.20;100981.00;;;;4955572;28;87693;-70
2023/06/22 06:25:15;;;;;;;5.55;4.28;;;25.80;99.90;26.40;100974.00;;;;4951129;28;110071;-70
2023/06/22 06:27:44;;;;;;;5.47;4.72;;;26.00;99.80;26.60;100960.00;;;;4956502;28;87859;-69
2023/06/22 06:30:12;;;;;;;10.38;5.80;;;26.20;98.90;26.70;100955.00;;;;4936396;28;88089;-68
2023/06/22 06:32:38;;;;;;;5.22;4.10;;;26.40;98.00;26.80;100949.00;;;;4954500;28;88025;-68
2023/06/22 06:35:06;;;;;;;7.95;4.53;;;26.50;97.40;26.90;100951.00;;;;4952536;28;88897;-70
2023/06/22 06:37:35;;;;;;;7.40;4.80;;;26.60;97.30;27.00;100935.00;;;;4951712;28;108403;-69
2023/06/22 06:40:00;;;;;;;5.80;3.72;;;26.70;96.40;27.10;100934.00;;;;4951480;28;106257;-70
2023/06/22 06:42:26;;;;;;;6.57;3.70;;;26.80;95.90;27.20;100934.00;;;;4953949;28;112269;-70
2023/06/22 06:44:52;;;;;;;4.70;3.50;;;26.90;95.50;27.40;100933.00;;;;4956978;28;87989;-69
2023/06/22 06:47:17;;;;;;;5.70;4.38;;;27.00;95.80;27.70;100920.00;;;;4953085;28;116097;-70
2023/06/22 06:49:43;;;;;;;4.78;3.58;;;27.30;95.30;27.80;100922.00;;;;4953376;28;117486;-69
2023/06/22 06:52:09;;;;;;;6.15;3.55;;;27.40;93.40;27.90;100915.00;;;;4935939;28;110084;-70
2023/06/22 06:54:34;;;;;;;4.28;3.78;;;27.50;93.40;27.90;100910.00;;;;4952089;28;109518;-70
2023/06/22 06:57:02;;;;;;;5.00;3.70;;;27.60;92.40;28.00;100898.00;;;;4953732;28;116476;-68
2023/06/22 06:59:30;;;;;;;7.45;4.55;;;27.70;91.80;28.00;100898.00;;;;4952159;28;88796;-70
2023/06/22 07:01:55;;;;;;;5.72;3.53;;;27.70;91.10;28.10;100898.00;;;;4959698;28;87930;-70
2023/06/22 07:04:21;;;;;;;3.80;3.40;;;27.80;90.20;28.20;100901.00;;;;4956946;28;88742;-70
2023/06/22 07:06:47;;;;;;;3.83;3.00;;;27.80;90.10;28.30;100896.00;;;;4956405;28;94056;-69
2023/06/22 07:09:12;;;;;;;3.78;3.25;;;27.90;88.60;28.40;100900.00;;;;4954688;28;116168;-68
2023/06/22 07:11:38;;;;;;;4.57;3.78;;;28.00;87.40;28.40;100905.00;;;;4965523;28;87876;-70
2023/06/22 07:14:04;;;;;;;4.72;2.95;;;28.10;86.60;28.50;100902.00;;;;4954680;28;106891;-68
2023/06/22 07:16:31;;;;;;;6.95;3.90;;;28.10;85.90;28.60;100914.00;;;;4956798;28;88321;-70
2023/06/22 07:18:57;;;;;;;4.53;3.60;;;28.20;87.00;28.80;100909.00;;;;4955982;28;88168;-70
2023/06/22 07:21:22;;;;;;;4.10;3.28;;;28.40;86.60;28.90;100927.00;;;;4956647;28;87815;-70
2023/06/22 07:23:48;;;;;;;4.80;3.58;;;28.50;84.30;29.00;100915.00;;;;4953997;28;88674;-70
2023/06/22 07:26:20;;;;;;;4.55;4.13;;;28.60;83.70;29.10;100913.00;;;;4960131;28;117971;-69
2023/06/22 07:28:45;;;;;;;6.45;4.70;;;28.80;83.40;29.10;100917.00;;;;4950958;28;100222;-69
2023/06/22 07:31:11;;;;;;;4.63;3.45;;;28.80;82.00;29.10;100914.00;;;;4954688;28;110021;-70
2023/06/22 07:33:37;;;;;;;4.63;4.03;;;28.80;82.00;29.00;100915.00;;;;4952730;28;108542;-70
2023/06/22 07:36:07;;;;;;;5.05;3.97;;;28.80;82.00;29.00;100924.00;;;;4954830;28;117755;-70
2023/06/22 07:38:34;;;;;;;5.18;3.83;;;28.70;82.50;29.10;100921.00;;;;4954842;28;88271;-70
2023/06/22 07:41:00;;;;;;;4.78;3.92;;;28.70;83.00;29.30;100920.00;;;;4955967;28;87229;-69
2023/06/22 07:43:26;;;;;;;5.85;3.90;;;28.90;82.50;29.40;100932.00;;;;4953671;28;102458;-71
2023/06/22 07:45:55;;;;;;;6.07;4.68;;;29.00;82.10;29.60;100926.00;;;;4950731;28;117782;-73
2023/06/22 07:48:22;;;;;;;5.45;4.05;;;29.10;81.30;29.70;100932.00;;;;4952811;28;88771;-74
2023/06/22 07:50:48;;;;;;;5.60;4.38;;;29.30;81.40;29.90;100922.00;;;;4938995;28;87831;-75
2023/06/22 07:53:13;;;;;;;9.65;4.57;;;29.40;80.30;30.10;100932.00;;;;4944005;28;100300;-75
2023/06/22 07:55:39;;;;;;;7.25;4.53;;;29.60;79.50;30.20;100915.00;;;;4955880;28;115434;-72
2023/06/22 07:58:05;;;;;;;7.35;4.55;;;29.80;79.10;30.40;100919.00;;;;4951768;28;115916;-74
2023/06/22 08:00:46;;;;;;;8.52;4.20;;;30.00;78.50;30.60;100920.00;;;;4921273;28;111035;-72
2023/06/22 08:03:12;;;;;;;8.88;4.90;;;30.20;76.80;30.80;100922.00;;;;4957567;28;90092;-72
2023/06/22 08:05:37;;;;;;;4.45;3.90;;;30.40;75.10;30.80;100902.00;;;;4956993;28;117573;-72
2023/06/22 08:08:03;;;;;;;4.25;3.75;;;30.50;74.80;30.90;100906.00;;;;4936967;28;115955;-75
2023/06/22 08:10:29;;;;;;;6.18;3.67;;;30.50;74.00;31.00;100904.00;;;;4953058;28;99632;-74
2023/06/22 08:12:55;;;;;;;4.53;3.65;;;30.60;73.20;30.90;100903.00;;;;4951701;28;108678;-75
2023/06/22 08:15:21;;;;;;;4.18;3.30;;;30.50;73.10;30.80;100898.00;;;;4953087;28;89593;-73
2023/06/22 08:17:47;;;;;;;4.72;4.22;;;30.50;73.80;31.00;100912.00;;;;4955289;28;88730;-72
2023/06/22 08:20:14;;;;;;;5.05;3.40;;;30.60;72.70;31.20;100911.00;;;;4937706;28;88152;-72
2023/06/22 08:22:41;;;;;;;4.45;3.22;;;30.70;71.00;31.10;100905.00;;;;4953987;28;87939;-74
2023/06/22 08:25:08;;;;;;;4.57;3.70;;;30.70;70.70;31.00;100912.00;;;;4954781;28;88077;-73
2023/06/22 08:27:34;;;;;;;5.05;3.70;;;30.70;70.50;31.00;100902.00;;;;4933789;28;88074;-74
2023/06/22 08:30:00;;;;;;;4.55;3.20;;;30.70;71.00;31.10;100909.00;;;;4951825;28;87096;-72
2023/06/22 08:32:28;;;;;;;4.93;3.65;;;30.70;70.20;31.10;100907.00;;;;4952639;28;101090;-73
2023/06/22 08:34:57;;;;;;;6.20;4.25;;;30.80;69.20;31.10;100909.00;;;;4953221;28;88592;-73
2023/06/22 08:37:30;;;;;;;2.90;2.65;;;30.70;69.50;31.10;100903.00;;;;4951776;28;108984;-73
2023/06/22 08:40:00;;;;;;;4.60;3.88;;;30.70;69.70;31.00;100893.00;;;;4938345;28;88178;-73
2023/06/22 08:42:27;;;;;;;7.55;3.58;;;30.70;69.00;31.10;100899.00;;;;4934178;28;88204;-72
2023/06/22 08:44:53;;;;;;;5.32;3.65;;;30.70;69.20;31.10;100890.00;;;;4952891;28;88002;-73
2023/06/22 08:47:19;;;;;;;5.63;3.40;;;30.70;69.10;31.20;100894.00;;;;4952419;28;88032;-72
2023/06/22 08:49:45;;;;;;;4.30;3.42;;;30.70;68.30;31.20;100886.00;;;;4952755;28;87943;-71
2023/06/22 08:52:11;;;;;;;3.47;2.97;;;30.80;67.80;31.10;100893.00;;;;4951719;28;109361;-72
2023/06/22 08:54:36;;;;;;;7.50;3.05;;;30.80;65.90;31.00;100903.00;;;;4952605;28;116337;-74
2023/06/22 08:57:02;;;;;;;5.28;2.63;;;30.70;65.80;30.90;100903.00;;;;4952427;28;116332;-72
2023/06/22 08:59:28;;;;;;;3.63;3.25;;;30.60;65.50;31.00;100890.00;;;;4950307;28;96773;-72
2023/06/22 09:01:54;;;;;;;7.10;3.53;;;30.60;65.00;31.20;100895.00;;;;4950396;28;88638;-72
2023/06/22 09:04:21;;;;;;;4.15;3.58;;;30.70;65.20;31.40;100898.00;;;;4950849;28;88801;-72
2023/06/22 09:06:49;;;;;;;3.50;2.80;;;30.90;65.20;31.60;100895.00;;;;4952466;28;89037;-72
2023/06/22 09:09:16;;;;;;;5.85;3.28;;;31.10;63.30;31.70;100887.00;;;;4950463;28;88580;-72
2023/06/22 09:11:42;;;;;;;4.80;3.45;;;31.20;62.60;31.70;100895.00;;;;4951939;28;88351;-72
2023/06/22 09:14:09;;;;;;;4.63;3.42;;;31.30;62.90;31.80;100879.00;;;;4953342;28;88268;-73
2023/06/22 09:16:34;;;;;;;4.40;3.70;;;31.30;63.40;32.00;100881.00;;;;4952538;28;104652;-71
2023/06/22 09:19:00;;;;;;;5.28;3.58;;;31.50;62.40;32.30;100877.00;;;;4952204;28;99106;-74
2023/06/22 09:21:26;;;;;;;3.97;2.95;;;31.80;61.70;32.60;100889.00;;;;4949845;28;88778;-74
2023/06/22 09:23:51;;;;;;;4.50;3.28;;;31.90;60.60;32.70;100881.00;;;;4933358;28;117889;-72
2023/06/22 09:26:18;;;;;;;5.53;2.95;;;32.20;58.60;32.80;100883.00;;;;4952363;28;88844;-72
2023/06/22 09:28:44;;;;;;;5.85;2.90;;;32.30;58.20;32.90;100880.00;;;;4952202;28;87893;-72
2023/06/22 09:31:10;;;;;;;3.35;2.63;;;32.40;58.50;33.00;100875.00;;;;4934947;28;98027;-72
2023/06/22 09:33:37;;;;;;;3.92;3.20;;;32.50;58.00;33.00;100874.00;;;;4949926;28;106614;-73
2023/06/22 09:36:07;;;;;;;5.63;4.15;;;32.60;57.30;33.00;100875.00;;;;4937693;28;88997;-72
2023/06/22 09:38:38;;;;;;;3.53;2.85;;;32.50;57.20;32.90;100882.00;;;;4954495;28;87993;-73
2023/06/22 09:41:04;;;;;;;4.47;2.90;;;32.40;57.10;32.90;100870.00;;;;4936342;28;87954;-74
2023/06/22 09:43:32;;;;;;;5.18;2.65;;;32.40;57.10;32.90;100866.00;;;;4935358;28;87340;-74
2023/06/22 09:45:57;;;;;;;3.67;2.83;;;32.50;57.30;33.10;100871.00;;;;4932439;28;101051;-72
2023/06/22 09:48:23;;;;;;;3.67;2.90;;;32.60;57.30;33.30;100867.00;;;;4948782;28;98002;-74
2023/06/22 09:50:49;;;;;;;3.97;3.30;;;32.80;55.90;33.30;100870.00;;;;4952115;28;109003;-73
2023/06/22 09:53:15;;;;;;;4.22;3.00;;;32.80;54.90;33.10;100867.00;;;;4950732;28;112486;-72
2023/06/22 09:55:41;;;;;;;5.32;2.97;;;32.70;54.80;33.00;100859.00;;;;4952222;28;87762;-73
2023/06/22 09:58:06;;;;;;;3.03;2.83;;;32.50;55.30;33.00;100867.00;;;;4935684;28;88187;-72
2023/06/22 10:00:32;;;;;;;2.95;2.33;;;32.60;54.80;33.30;100866.00;;;;4953041;28;108555;-74
2023/06/22 10:02:58;;;;;;;3.30;2.35;;;32.70;53.80;33.40;100869.00;;;;4953160;28;117276;-73
2023/06/22 10:05:24;;;;;;;5.35;3.15;;;32.80;53.40;33.60;100868.00;;;;4933599;28;87747;-72
2023/06/22 10:07:50;;;;;;;3.35;2.47;;;33.00;53.30;33.70;100859.00;;;;4952060;28;87049;-73
2023/06/22 10:10:16;;;;;;;3.03;2.30;;;33.10;52.80;33.70;100857.00;;;;4947717;28;109179;-73
2023/06/22 10:12:48;;;;;;;3.58;2.97;;;33.20;51.30;33.60;100856.00;;;;4953888;28;118781;-72
2023/06/22 10:15:15;;;;;;;5.60;2.80;;;33.10;51.20;33.50;100860.00;;;;4946683;28;88907;-74
2023/06/22 10:17:46;;;;;;;5.00;2.85;;;33.00;51.60;33.20;100860.00;;;;4950728;28;87812;-73
2023/06/22 10:20:13;;;;;;;4.82;3.22;;;32.80;51.80;33.00;100859.00;;;;4951788;28;101389;-74
2023/06/22 10:22:43;;;;;;;6.15;3.03;;;32.60;52.10;32.90;100863.00;;;;4955416;28;88849;-73
2023/06/22 10:25:10;;;;;;;3.75;2.95;;;32.50;52.90;32.80;100859.00;;;;4951333;28;88482;-72
2023/06/22 10:27:39;;;;;;;3.28;2.15;;;32.40;52.30;32.70;100846.00;;;;4938215;28;88056;-72
2023/06/22 10:30:09;;;;;;;4.22;2.88;;;32.30;52.90;32.80;100844.00;;;;4952041;28;87824;-74
2023/06/22 10:32:37;;;;;;;2.95;2.10;;;32.30;52.70;32.90;100828.00;;;;4952525;28;88095;-74
2023/06/22 10:35:03;;;;;;;3.60;2.55;;;32.40;52.20;32.90;100825.00;;;;4951226;28;87734;-71
2023/06/22 10:37:28;;;;;;;4.30;2.72;;;32.40;52.00;33.00;100836.00;;;;4950912;28;103322;-73
2023/06/22 10:39:54;;;;;;;5.13;3.05;;;32.50;51.60;32.90;100824.00;;;;4951991;28;89240;-74
2023/06/22 10:42:20;;;;;;;3.60;2.40;;;32.50;50.90;33.10;100823.00;;;;4934022;28;101878;-72
2023/06/22 10:44:46;;;;;;;2.75;2.10;;;32.50;51.60;33.40;100814.00;;;;4951909;28;117823;-72
2023/06/22 10:47:12;;;;;;;2.55;2.35;;;32.70;51.70;33.90;100821.00;;;;4953649;28;87851;-73